createdAt,value
2018-10-17T00:02:17.113Z,13.29
2018-10-17T00:04:47.540Z,13.22
2018-10-17T00:07:18.194Z,13.15
2018-10-17T00:09:48.645Z,13.15
2018-10-17T00:12:19.011Z,13.16
2018-10-17T00:14:49.651Z,13.16
2018-10-17T00:17:20.079Z,13.17
2018-10-17T00:19:50.549Z,13.20
2018-10-17T00:22:21.017Z,13.21
2018-10-17T00:24:51.552Z,13.22
2018-10-17T00:27:22.064Z,13.22
2018-10-17T00:29:52.557Z,13.11
2018-10-17T00:32:23.042Z,13.04
2018-10-17T00:34:54.418Z,13.03
2018-10-17T00:37:24.974Z,12.96
2018-10-17T00:39:55.432Z,12.98
2018-10-17T00:42:26.758Z,12.97
2018-10-17T00:44:57.179Z,12.88
2018-10-17T00:47:27.730Z,12.83
2018-10-17T00:49:58.193Z,12.84
2018-10-17T00:52:28.715Z,12.79
2018-10-17T00:54:59.449Z,12.84
2018-10-17T00:57:29.859Z,12.79
2018-10-17T01:00:00.317Z,12.86
2018-10-17T01:02:30.701Z,12.87
2018-10-17T01:05:01.475Z,12.75
2018-10-17T01:07:31.984Z,12.66
2018-10-17T01:10:02.415Z,12.74
2018-10-17T01:12:32.856Z,12.70
2018-10-17T01:15:03.688Z,12.68
2018-10-17T01:17:34.098Z,12.66
2018-10-17T01:20:04.582Z,12.56
2018-10-17T01:22:35.116Z,12.56
2018-10-17T01:25:05.781Z,12.45
2018-10-17T01:27:36.276Z,12.42
2018-10-17T01:30:08.054Z,12.48
2018-10-17T01:32:38.561Z,12.47
2018-10-17T01:35:09.439Z,12.42
2018-10-17T01:37:39.715Z,12.46
2018-10-17T01:40:10.147Z,12.41
2018-10-17T01:42:40.573Z,12.44
2018-10-17T01:45:11.192Z,12.45
2018-10-17T01:47:41.626Z,12.45
2018-10-17T01:50:12.239Z,12.44
2018-10-17T01:52:42.659Z,12.43
2018-10-17T01:55:13.370Z,12.42
2018-10-17T01:57:43.757Z,12.40
2018-10-17T02:00:14.175Z,12.38
2018-10-17T02:02:44.582Z,12.30
2018-10-17T02:05:15.000Z,12.27
2018-10-17T02:07:45.462Z,12.26
2018-10-17T02:10:15.837Z,12.22
2018-10-17T02:12:46.433Z,12.08
2018-10-17T02:15:17.180Z,12.16
2018-10-17T02:17:47.704Z,12.10
2018-10-17T02:20:18.162Z,12.01
2018-10-17T02:22:48.567Z,11.96
2018-10-17T02:25:19.153Z,11.99
2018-10-17T02:27:49.624Z,11.99
2018-10-17T02:30:21.019Z,11.97
2018-10-17T02:32:51.432Z,11.97
2018-10-17T02:35:21.950Z,11.88
2018-10-17T02:37:52.401Z,11.78
2018-10-17T02:40:22.817Z,11.78
2018-10-17T02:42:53.313Z,11.72
2018-10-17T02:45:23.817Z,11.71
2018-10-17T02:47:54.371Z,11.67
2018-10-17T02:50:24.828Z,11.67
2018-10-17T02:52:55.401Z,11.67
2018-10-17T02:55:25.985Z,11.62
2018-10-17T02:57:56.481Z,11.57
2018-10-17T03:00:26.946Z,11.56
2018-10-17T03:02:57.367Z,11.51
2018-10-17T03:05:27.836Z,11.55
2018-10-17T03:07:58.255Z,11.56
2018-10-17T03:10:28.814Z,11.60
2018-10-17T03:12:59.319Z,11.60
2018-10-17T03:15:29.899Z,11.52
2018-10-17T03:18:00.323Z,11.56
2018-10-17T03:20:30.858Z,11.49
2018-10-17T03:23:01.421Z,11.41
2018-10-17T03:25:31.832Z,11.36
2018-10-17T03:28:03.308Z,11.27
2018-10-17T03:30:33.888Z,11.33
2018-10-17T03:33:05.208Z,11.35
2018-10-17T03:35:35.980Z,11.35
2018-10-17T03:38:07.579Z,11.29
2018-10-17T03:40:38.042Z,11.28
2018-10-17T03:43:08.587Z,11.22
2018-10-17T03:45:39.037Z,11.28
2018-10-17T03:48:09.522Z,11.30
2018-10-17T03:50:40.067Z,11.30
2018-10-17T03:53:10.664Z,11.30
2018-10-17T03:55:41.460Z,11.34
2018-10-17T03:58:11.940Z,11.34
2018-10-17T04:00:42.306Z,11.36
2018-10-17T04:03:12.726Z,11.36
2018-10-17T04:05:43.273Z,11.47
2018-10-17T04:08:13.709Z,11.50
2018-10-17T04:10:44.256Z,11.48
2018-10-17T04:13:14.768Z,11.35
2018-10-17T04:15:45.240Z,11.25
2018-10-17T04:18:15.799Z,11.22
2018-10-17T04:20:46.319Z,11.27
2018-10-17T04:23:17.005Z,11.29
2018-10-17T04:25:47.506Z,11.30
2018-10-17T04:28:17.931Z,11.33
2018-10-17T04:30:48.414Z,11.25
2018-10-17T04:33:18.929Z,11.24
2018-10-17T04:35:49.539Z,11.23
2018-10-17T04:38:20.131Z,11.23
2018-10-17T04:40:50.581Z,11.29
2018-10-17T04:43:21.033Z,11.27
2018-10-17T04:45:51.425Z,11.22
2018-10-17T04:48:22.118Z,11.18
2018-10-17T04:50:52.614Z,11.15
2018-10-17T04:53:23.090Z,11.12
2018-10-17T04:55:53.685Z,11.19
2018-10-17T04:58:24.134Z,11.23
2018-10-17T05:00:54.668Z,11.22
2018-10-17T05:03:25.093Z,11.29
2018-10-17T05:05:55.608Z,11.27
2018-10-17T05:08:26.082Z,11.31
2018-10-17T05:10:56.718Z,11.33
2018-10-17T05:13:27.240Z,11.35
2018-10-17T05:15:57.924Z,11.31
2018-10-17T05:18:28.329Z,11.32
2018-10-17T05:20:58.801Z,11.39
2018-10-17T05:23:29.219Z,11.39
2018-10-17T05:25:59.638Z,11.40
2018-10-17T05:28:30.177Z,11.40
2018-10-17T05:31:00.579Z,11.44
2018-10-17T05:33:31.214Z,11.41
2018-10-17T05:36:02.223Z,11.48
2018-10-17T05:38:32.800Z,11.47
2018-10-17T05:41:03.303Z,11.49
2018-10-17T05:43:33.780Z,11.61
2018-10-17T05:46:04.327Z,11.69
2018-10-17T05:48:34.782Z,11.70
2018-10-17T05:51:05.302Z,11.81
2018-10-17T05:53:35.777Z,11.91
2018-10-17T05:56:06.528Z,11.84
2018-10-17T05:58:36.968Z,11.86
2018-10-17T06:01:07.960Z,11.80
2018-10-17T06:03:38.364Z,11.77
2018-10-17T06:06:08.828Z,11.83
2018-10-17T06:08:39.224Z,11.84
2018-10-17T06:11:09.816Z,11.81
2018-10-17T06:13:40.222Z,11.80
2018-10-17T06:16:10.882Z,11.80
2018-10-17T06:18:41.336Z,11.86
2018-10-17T06:21:11.802Z,11.88
2018-10-17T06:23:42.330Z,11.97
2018-10-17T06:26:12.850Z,12.00
2018-10-17T06:28:43.426Z,12.12
2018-10-17T06:31:13.889Z,12.13
2018-10-17T06:33:44.424Z,12.10
2018-10-17T06:36:16.004Z,12.20
2018-10-17T06:38:46.422Z,12.30
2018-10-17T06:41:17.142Z,12.42
2018-10-17T06:43:47.665Z,12.47
2018-10-17T06:46:18.166Z,12.52
2018-10-17T06:48:48.647Z,12.54
2018-10-17T06:51:19.195Z,12.58
2018-10-17T06:53:49.744Z,12.59
2018-10-17T06:56:20.282Z,12.70
2018-10-17T06:58:50.755Z,12.78
2018-10-17T07:01:21.386Z,12.74
2018-10-17T07:03:51.805Z,12.70
2018-10-17T07:06:22.329Z,12.75
2018-10-17T07:08:52.743Z,12.81
2018-10-17T07:11:23.332Z,12.88
2018-10-17T07:13:53.699Z,13.01
2018-10-17T07:16:24.160Z,13.10
2018-10-17T07:18:54.701Z,13.13
2018-10-17T07:21:25.235Z,13.30
2018-10-17T07:23:55.692Z,13.35
2018-10-17T07:26:26.483Z,13.53
2018-10-17T07:28:56.968Z,13.67
2018-10-17T07:31:27.486Z,13.75
2018-10-17T07:33:58.004Z,13.63
2018-10-17T07:36:29.258Z,13.69
2018-10-17T07:38:59.760Z,13.70
2018-10-17T07:41:30.209Z,13.71
2018-10-17T07:44:00.729Z,13.68
2018-10-17T07:46:31.121Z,13.78
2018-10-17T07:49:01.622Z,13.90
2018-10-17T07:51:32.026Z,13.91
2018-10-17T07:54:02.631Z,14.07
2018-10-17T07:56:33.203Z,14.16
2018-10-17T07:59:03.581Z,14.14
2018-10-17T08:01:33.985Z,14.19
2018-10-17T08:04:04.481Z,14.18
2018-10-17T08:06:35.037Z,14.27
2018-10-17T08:09:07.772Z,14.40
2018-10-17T08:11:38.461Z,14.62
2018-10-17T08:14:09.290Z,14.74
2018-10-17T08:16:40.069Z,14.94
2018-10-17T08:19:10.585Z,15.10
2018-10-17T08:21:41.829Z,15.34
2018-10-17T08:24:12.292Z,15.36
2018-10-17T08:26:42.759Z,15.36
2018-10-17T08:29:13.433Z,15.48
2018-10-17T08:31:44.000Z,15.61
2018-10-17T08:34:14.591Z,15.64
2018-10-17T08:36:45.575Z,15.74
2018-10-17T08:39:15.947Z,15.80
2018-10-17T08:41:46.372Z,15.92
2018-10-17T08:44:16.970Z,16.07
2018-10-17T08:46:47.367Z,16.13
2018-10-17T08:49:17.800Z,16.21
2018-10-17T08:51:48.250Z,16.10
2018-10-17T08:54:18.705Z,16.17
2018-10-17T08:56:49.312Z,16.24
2018-10-17T08:59:19.905Z,16.32
2018-10-17T09:01:51.106Z,16.35
2018-10-17T09:04:21.582Z,16.42
2018-10-17T09:06:52.018Z,16.56
2018-10-17T09:09:22.509Z,16.51
2018-10-17T09:11:53.001Z,16.62
2018-10-17T09:14:23.510Z,16.66
2018-10-17T09:16:54.941Z,16.80
2018-10-17T09:19:25.474Z,16.88
2018-10-17T09:21:56.225Z,16.95
2018-10-17T09:24:26.473Z,17.08
2018-10-17T09:26:56.984Z,17.03
2018-10-17T09:29:27.620Z,17.14
2018-10-17T09:31:58.105Z,17.19
2018-10-17T09:34:28.579Z,17.21
2018-10-17T09:36:59.279Z,17.19
2018-10-17T09:39:29.724Z,17.14
2018-10-17T09:42:00.174Z,17.19
2018-10-17T09:44:30.676Z,17.18
2018-10-17T09:47:01.106Z,17.18
2018-10-17T09:49:31.516Z,17.29
2018-10-17T09:52:01.994Z,17.38
2018-10-17T09:54:32.473Z,17.37
2018-10-17T09:57:03.233Z,17.37
2018-10-17T09:59:33.740Z,17.28
2018-10-17T10:02:04.319Z,17.38
2018-10-17T10:04:34.744Z,17.30
2018-10-17T10:07:06.284Z,17.29
2018-10-17T10:09:36.705Z,17.33
2018-10-17T10:12:07.633Z,17.35
2018-10-17T10:14:38.113Z,17.29
2018-10-17T10:17:11.958Z,17.31
2018-10-17T10:19:42.429Z,17.27
2018-10-17T10:22:13.053Z,17.29
2018-10-17T10:24:43.456Z,17.28
2018-10-17T10:27:13.920Z,17.28
2018-10-17T10:29:44.519Z,17.29
2018-10-17T10:32:15.031Z,17.29
2018-10-17T10:34:45.457Z,17.25
2018-10-17T10:37:16.220Z,17.33
2018-10-17T10:39:46.649Z,17.32
2018-10-17T10:42:17.195Z,17.21
2018-10-17T10:44:47.866Z,17.24
2018-10-17T10:47:18.319Z,17.21
2018-10-17T10:49:48.735Z,17.11
2018-10-17T10:52:19.222Z,17.16
2018-10-17T10:54:49.585Z,17.12
2018-10-17T10:57:20.793Z,17.15
2018-10-17T10:59:51.324Z,17.31
2018-10-17T11:02:21.842Z,17.32
2018-10-17T11:04:52.264Z,17.39
2018-10-17T11:07:22.716Z,17.42
2018-10-17T11:09:53.221Z,17.47
2018-10-17T11:12:23.701Z,17.53
2018-10-17T11:14:54.376Z,17.47
2018-10-17T11:17:25.665Z,17.47
2018-10-17T11:19:56.325Z,17.48
2018-10-17T11:22:26.760Z,17.49
2018-10-17T11:24:57.296Z,17.31
2018-10-17T11:27:27.931Z,17.58
2018-10-17T11:29:58.371Z,17.65
2018-10-17T11:32:28.766Z,17.78
2018-10-17T11:34:59.485Z,17.87
2018-10-17T11:37:32.043Z,18.00
2018-10-17T11:40:02.965Z,18.11
2018-10-17T11:42:33.492Z,18.19
2018-10-17T11:45:04.611Z,18.18
2018-10-17T11:47:35.381Z,18.20
2018-10-17T11:50:07.841Z,18.21
2018-10-17T11:52:38.693Z,18.28
2018-10-17T11:55:09.525Z,18.36
2018-10-17T11:57:41.220Z,18.46
2018-10-17T12:00:13.297Z,18.45
2018-10-17T12:02:43.701Z,18.37
2018-10-17T12:05:15.661Z,18.35
2018-10-17T12:07:45.879Z,18.42
2018-10-17T12:10:16.421Z,18.43
2018-10-17T12:12:47.159Z,18.45
2018-10-17T12:15:17.757Z,18.47
2018-10-17T12:17:48.423Z,18.55
2018-10-17T12:20:19.518Z,18.51
2018-10-17T12:22:50.075Z,18.52
2018-10-17T12:25:20.573Z,18.56
2018-10-17T12:27:51.068Z,18.68
2018-10-17T12:30:21.620Z,18.64
2018-10-17T12:32:52.024Z,18.58
2018-10-17T12:35:22.464Z,18.64
2018-10-17T12:37:53.224Z,18.58
2018-10-17T12:40:24.273Z,18.56
2018-10-17T12:42:54.624Z,18.51
2018-10-17T12:45:25.149Z,18.47
2018-10-17T12:47:55.623Z,18.43
2018-10-17T12:50:26.173Z,18.46
2018-10-17T12:52:56.742Z,18.57
2018-10-17T12:55:27.189Z,18.64
2018-10-17T12:57:58.692Z,18.79
2018-10-17T13:00:29.160Z,18.71
2018-10-17T13:02:59.725Z,18.83
2018-10-17T13:05:30.164Z,18.77
2018-10-17T13:08:00.628Z,18.84
2018-10-17T13:10:30.998Z,18.82
2018-10-17T13:13:01.702Z,18.71
2018-10-17T13:15:32.197Z,18.69
2018-10-17T13:18:02.964Z,18.59
2018-10-17T13:20:33.528Z,18.59
2018-10-17T13:23:04.058Z,18.59
2018-10-17T13:25:34.399Z,18.61
2018-10-17T13:28:05.140Z,18.58
2018-10-17T13:30:35.595Z,18.54
2018-10-17T13:33:06.872Z,18.59
2018-10-17T13:35:37.310Z,18.63
2018-10-17T13:38:08.099Z,18.60
2018-10-17T13:40:38.717Z,18.55
2018-10-17T13:43:09.168Z,18.51
2018-10-17T13:45:39.709Z,18.55
2018-10-17T13:48:10.229Z,18.59
2018-10-17T13:50:40.631Z,18.66
2018-10-17T13:53:11.194Z,18.56
2018-10-17T13:55:41.700Z,18.55
2018-10-17T13:58:12.376Z,18.58
2018-10-17T14:00:42.868Z,18.62
2018-10-17T14:03:13.346Z,18.61
2018-10-17T14:05:43.757Z,18.53
2018-10-17T14:08:14.300Z,18.55
2018-10-17T14:10:44.732Z,18.48
2018-10-17T14:13:15.258Z,18.46
2018-10-17T14:15:46.584Z,18.38
2018-10-17T14:18:17.259Z,18.38
2018-10-17T14:20:47.694Z,18.41
2018-10-17T14:23:18.220Z,18.36
2018-10-17T14:25:48.761Z,18.32
2018-10-17T14:28:19.208Z,18.29
2018-10-17T14:30:49.677Z,18.28
2018-10-17T14:33:20.253Z,18.26
2018-10-17T14:35:50.793Z,18.25
2018-10-17T14:38:21.376Z,18.21
2018-10-17T14:40:52.049Z,18.18
2018-10-17T14:43:22.433Z,18.16
2018-10-17T14:45:53.989Z,18.13
2018-10-17T14:48:24.498Z,18.12
2018-10-17T14:50:55.006Z,18.08
2018-10-17T14:53:25.464Z,18.05
2018-10-17T14:55:55.882Z,18.03
2018-10-17T14:58:26.476Z,17.99
2018-10-17T15:00:56.891Z,17.80
2018-10-17T15:03:27.420Z,18.01
2018-10-17T15:05:58.156Z,17.87
2018-10-17T15:08:28.594Z,17.80
2018-10-17T15:10:59.349Z,17.67
2018-10-17T15:13:29.670Z,17.50
2018-10-17T15:16:00.183Z,17.44
2018-10-17T15:18:30.596Z,17.42
2018-10-17T15:21:01.086Z,17.29
2018-10-17T15:23:31.584Z,17.31
2018-10-17T15:26:02.032Z,17.24
2018-10-17T15:28:32.468Z,17.18
2018-10-17T15:31:02.941Z,17.19
2018-10-17T15:33:33.379Z,17.15
2018-10-17T15:36:03.950Z,17.15
2018-10-17T15:38:34.644Z,17.12
2018-10-17T15:41:05.268Z,17.07
2018-10-17T15:43:35.798Z,16.99
2018-10-17T15:46:06.584Z,16.98
2018-10-17T15:48:37.048Z,16.98
2018-10-17T15:51:07.841Z,16.97
2018-10-17T15:53:38.404Z,16.97
2018-10-17T15:56:08.804Z,16.92
2018-10-17T15:58:40.303Z,16.91
2018-10-17T16:01:10.949Z,16.86
2018-10-17T16:03:41.412Z,16.85
2018-10-17T16:06:11.986Z,16.83
2018-10-17T16:08:42.552Z,16.79
2018-10-17T16:11:14.305Z,16.74
2018-10-17T16:13:44.777Z,16.70
2018-10-17T16:16:15.213Z,16.66
2018-10-17T16:18:45.871Z,16.64
2018-10-17T16:21:16.380Z,16.62
2018-10-17T16:23:46.774Z,16.61
2018-10-17T16:26:17.292Z,16.60
2018-10-17T16:28:47.812Z,16.58
2018-10-17T16:31:18.376Z,16.50
2018-10-17T16:33:48.938Z,16.41
2018-10-17T16:36:19.537Z,16.27
2018-10-17T16:38:50.040Z,16.20
2018-10-17T16:41:20.619Z,16.22
2018-10-17T16:43:51.030Z,16.18
2018-10-17T16:46:21.537Z,16.11
2018-10-17T16:48:52.004Z,16.07
2018-10-17T16:51:22.508Z,16.01
2018-10-17T16:53:52.941Z,16.04
2018-10-17T16:56:26.091Z,15.98
2018-10-17T16:58:56.801Z,15.94
2018-10-17T17:01:27.244Z,15.90
2018-10-17T17:03:57.919Z,15.84
2018-10-17T17:06:28.581Z,15.84
2018-10-17T17:08:59.085Z,15.81
2018-10-17T17:11:29.568Z,15.78
2018-10-17T17:14:00.036Z,15.88
2018-10-17T17:16:30.753Z,15.76
2018-10-17T17:19:01.217Z,15.74
2018-10-17T17:21:31.712Z,15.65
2018-10-17T17:24:02.321Z,15.61
2018-10-17T17:26:32.822Z,15.62
2018-10-17T17:29:03.391Z,15.61
2018-10-17T17:31:33.905Z,15.49
2018-10-17T17:34:04.556Z,15.43
2018-10-17T17:36:35.123Z,15.45
2018-10-17T17:39:07.180Z,15.46
2018-10-17T17:41:37.633Z,15.37
2018-10-17T17:44:08.266Z,15.30
2018-10-17T17:46:38.780Z,15.32
2018-10-17T17:49:09.233Z,15.21
2018-10-17T17:51:39.635Z,15.25
2018-10-17T17:54:10.143Z,15.13
2018-10-17T17:56:41.070Z,15.06
2018-10-17T17:59:12.075Z,15.08
2018-10-17T18:01:42.605Z,15.01
2018-10-17T18:04:13.123Z,15.05
2018-10-17T18:06:43.590Z,15.07
2018-10-17T18:09:14.268Z,15.01
2018-10-17T18:11:44.817Z,14.92
2018-10-17T18:14:15.360Z,14.86
2018-10-17T18:16:45.718Z,14.93
2018-10-17T18:19:16.412Z,14.93
2018-10-17T18:21:47.021Z,14.81
2018-10-17T18:24:17.496Z,14.81
2018-10-17T18:26:47.965Z,14.89
2018-10-17T18:29:18.434Z,14.95
2018-10-17T18:31:49.398Z,14.92
2018-10-17T18:34:19.996Z,14.89
2018-10-17T18:36:50.388Z,14.91
2018-10-17T18:39:20.934Z,14.83
2018-10-17T18:41:51.346Z,14.70
2018-10-17T18:44:21.858Z,14.70
2018-10-17T18:46:52.282Z,14.72
2018-10-17T18:49:22.787Z,14.68
2018-10-17T18:51:53.288Z,14.68
2018-10-17T18:54:24.973Z,14.59
2018-10-17T18:56:55.405Z,14.60
2018-10-17T18:59:27.383Z,14.63
2018-10-17T19:01:57.880Z,14.68
2018-10-17T19:04:28.358Z,14.73
2018-10-17T19:06:58.892Z,14.72
2018-10-17T19:09:29.324Z,14.64
2018-10-17T19:11:59.824Z,14.61
2018-10-17T19:14:30.322Z,14.56
2018-10-17T19:17:00.895Z,14.59
2018-10-17T19:19:31.496Z,14.59
2018-10-17T19:22:01.902Z,14.64
2018-10-17T19:24:32.416Z,14.70
2018-10-17T19:27:02.901Z,14.66
2018-10-17T19:29:33.375Z,14.57
2018-10-17T19:32:03.846Z,14.63
2018-10-17T19:34:34.382Z,14.66
2018-10-17T19:37:04.918Z,14.73
2018-10-17T19:39:35.393Z,14.64
2018-10-17T19:42:06.061Z,14.55
2018-10-17T19:44:36.608Z,14.52
2018-10-17T19:47:07.101Z,14.48
2018-10-17T19:49:37.516Z,14.54
2018-10-17T19:52:07.987Z,14.52
2018-10-17T19:54:38.469Z,14.52
2018-10-17T19:57:08.895Z,14.59
2018-10-17T19:59:39.707Z,14.58
2018-10-17T20:02:10.940Z,14.66
2018-10-17T20:04:41.414Z,14.70
2018-10-17T20:07:11.846Z,14.71
2018-10-17T20:09:42.271Z,14.72
2018-10-17T20:12:12.775Z,14.70
2018-10-17T20:14:43.249Z,14.72
2018-10-17T20:17:13.723Z,14.80
2018-10-17T20:19:44.496Z,14.79
2018-10-17T20:22:14.939Z,14.78
2018-10-17T20:24:45.378Z,14.87
2018-10-17T20:27:15.981Z,14.90
2018-10-17T20:29:46.424Z,14.93
2018-10-17T20:32:16.908Z,14.96
2018-10-17T20:34:47.435Z,14.98
2018-10-17T20:37:17.956Z,15.04
2018-10-17T20:39:48.676Z,15.05
2018-10-17T20:42:19.283Z,15.09
2018-10-17T20:44:49.693Z,15.09
2018-10-17T20:47:20.115Z,15.12
2018-10-17T20:49:50.521Z,15.11
2018-10-17T20:52:21.453Z,15.07
2018-10-17T20:54:51.995Z,15.03
2018-10-17T20:57:22.442Z,14.99
2018-10-17T20:59:53.139Z,15.02
2018-10-17T21:02:23.537Z,15.02
2018-10-17T21:04:54.121Z,15.06
2018-10-17T21:07:24.544Z,15.07
2018-10-17T21:09:55.044Z,15.09
2018-10-17T21:12:25.504Z,15.10
2018-10-17T21:14:55.889Z,15.05
2018-10-17T21:17:26.365Z,15.03
2018-10-17T21:19:56.851Z,14.91
2018-10-17T21:22:27.329Z,14.95
2018-10-17T21:24:57.835Z,14.89
2018-10-17T21:27:28.261Z,14.90
2018-10-17T21:29:58.700Z,14.92
2018-10-17T21:32:29.147Z,14.94
2018-10-17T21:34:59.733Z,14.94
2018-10-17T21:37:31.160Z,14.95
2018-10-17T21:40:01.619Z,14.93
2018-10-17T21:42:32.086Z,14.88
2018-10-17T21:45:02.502Z,14.82
2018-10-17T21:47:32.872Z,14.87
2018-10-17T21:50:03.456Z,14.85
2018-10-17T21:52:33.973Z,14.84
2018-10-17T21:55:04.546Z,14.87
2018-10-17T21:57:34.970Z,14.88
2018-10-17T22:00:06.606Z,14.82
2018-10-17T22:02:37.106Z,14.81
2018-10-17T22:05:09.443Z,14.85
2018-10-17T22:07:39.913Z,14.81
2018-10-17T22:10:10.545Z,14.81
2018-10-17T22:12:41.125Z,14.72
2018-10-17T22:15:12.059Z,14.71
2018-10-17T22:17:42.525Z,14.71
2018-10-17T22:20:13.328Z,14.67
2018-10-17T22:22:43.828Z,14.62
2018-10-17T22:25:14.217Z,14.55
2018-10-17T22:27:44.808Z,14.60
2018-10-17T22:30:15.248Z,14.62
2018-10-17T22:32:45.838Z,14.60
2018-10-17T22:35:16.294Z,14.56
2018-10-17T22:37:46.940Z,14.53
2018-10-17T22:40:17.716Z,14.52
2018-10-17T22:42:48.181Z,14.51
2018-10-17T22:45:18.669Z,14.52
2018-10-17T22:47:49.325Z,14.42
2018-10-17T22:50:19.764Z,14.41
2018-10-17T22:52:51.230Z,14.41
2018-10-17T22:55:21.833Z,14.35
2018-10-17T22:57:52.348Z,14.28
2018-10-17T23:00:23.221Z,14.33
2018-10-17T23:02:53.788Z,14.34
2018-10-17T23:05:24.355Z,14.39
2018-10-17T23:07:54.987Z,14.22
2018-10-17T23:10:25.414Z,14.15
2018-10-17T23:12:55.940Z,14.10
2018-10-17T23:15:26.374Z,14.06
2018-10-17T23:17:56.860Z,13.99
2018-10-17T23:20:27.400Z,14.01
2018-10-17T23:22:57.808Z,14.07
2018-10-17T23:25:28.302Z,14.04
2018-10-17T23:27:58.835Z,14.10
2018-10-17T23:30:29.369Z,13.99
2018-10-17T23:32:59.881Z,13.97
2018-10-17T23:35:30.347Z,13.92
2018-10-17T23:38:00.812Z,13.82
2018-10-17T23:40:31.650Z,13.80
2018-10-17T23:43:02.222Z,13.71
2018-10-17T23:45:32.716Z,13.58
2018-10-17T23:48:03.160Z,13.51
2018-10-17T23:50:33.764Z,13.41
2018-10-17T23:53:04.696Z,13.33
2018-10-17T23:55:35.253Z,13.30
2018-10-17T23:58:07.125Z,13.39
